Time;durP1;ratioP1;P1;durP2;ratioP2;P2;SDS_P1;SDS_P2;PMS_P1;PMS_P2;Temp;Humidity;BMP_temperature;BMP_pressure;BME280_temperature;BME280_humidity;BME280_pressure;Samples;Min_cycle;Max_cycle;Signal;HPM_P1;HPM_P2
2022/08/26 00:00:21;;;;;;;9.10;7.40;;;;;;;21.88;86.50;99979.22;5040965;28;20475;-72
2022/08/26 00:02:49;;;;;;;11.17;8.20;;;;;;;21.74;87.70;99979.75;5036860;28;20455;-69
2022/08/26 00:05:16;;;;;;;9.90;7.53;;;;;;;21.78;87.78;99982.03;5044046;28;20451;-70
2022/08/26 00:07:43;;;;;;;8.47;7.50;;;;;;;21.69;88.52;99979.34;5040149;28;20456;-70
2022/08/26 00:10:10;;;;;;;8.63;7.27;;;;;;;21.68;89.27;99981.22;5044993;28;20518;-70
2022/08/26 00:12:37;;;;;;;10.10;7.87;;;;;;;21.71;88.49;99980.94;5039260;28;20520;-69
2022/08/26 00:15:05;;;;;;;8.90;7.40;;;;;;;21.70;89.45;99986.53;5046473;28;20461;-70
2022/08/26 00:17:31;;;;;;;8.97;7.97;;;;;;;21.64;89.47;99980.66;5046656;28;20973;-69
2022/08/26 00:19:59;;;;;;;10.80;7.33;;;;;;;21.47;90.67;99983.34;5045637;28;20490;-70
2022/08/26 00:22:26;;;;;;;10.30;7.57;;;;;;;21.31;93.33;99984.78;5045168;28;20461;-68
2022/08/26 00:24:53;;;;;;;9.67;7.50;;;;;;;21.34;93.84;99987.22;5047815;28;20449;-70
2022/08/26 00:27:19;;;;;;;8.27;7.30;;;;;;;21.34;93.74;99986.38;5045184;28;20460;-69
2022/08/26 00:29:46;;;;;;;9.30;7.97;;;;;;;21.28;94.20;99989.69;5043748;28;21098;-70
2022/08/26 00:32:12;;;;;;;10.23;7.80;;;;;;;21.32;93.12;99991.97;5047900;28;20455;-70
2022/08/26 00:34:39;;;;;;;9.97;8.07;;;;;;;21.27;93.68;99987.97;5045024;28;20451;-69
2022/08/26 00:37:08;;;;;;;8.70;7.00;;;;;;;21.28;93.54;99986.94;5047226;28;20459;-69
2022/08/26 00:39:34;;;;;;;9.50;8.43;;;;;;;21.27;92.91;99988.84;5035947;28;20492;-69
2022/08/26 00:42:01;;;;;;;9.13;8.10;;;;;;;21.23;93.56;99980.06;5041611;28;20555;-70
2022/08/26 00:44:27;;;;;;;11.53;8.30;;;;;;;21.22;92.00;99981.06;5040870;28;20447;-69
2022/08/26 00:46:59;;;;;;;11.13;7.73;;;;;;;21.03;95.33;99973.78;5052665;28;20453;-68
2022/08/26 00:49:35;;;;;;;9.90;8.07;;;;;;;21.10;93.53;99978.63;5058764;28;20483;-69
2022/08/26 00:52:05;;;;;;;11.83;7.50;;;;;;;21.15;93.58;99974.47;5052937;28;20827;-69
2022/08/26 00:54:39;;;;;;;13.00;8.00;;;;;;;21.08;94.93;99978.81;5046413;28;20459;-69
2022/08/26 00:57:10;;;;;;;9.17;7.70;;;;;;;21.08;94.60;99976.06;5048674;28;20535;-69
2022/08/26 00:59:38;;;;;;;10.73;8.87;;;;;;;21.15;93.93;99979.94;5046186;28;20487;-69
2022/08/26 01:02:04;;;;;;;9.23;8.27;;;;;;;21.11;93.63;99985.84;5051393;28;20499;-69
2022/08/26 01:04:34;;;;;;;10.43;8.20;;;;;;;21.04;93.68;99978.22;5051146;28;20492;-69
2022/08/26 01:07:02;;;;;;;9.60;7.40;;;;;;;21.01;94.78;99975.78;5044070;28;20559;-69
2022/08/26 01:09:30;;;;;;;9.90;8.33;;;;;;;20.96;94.58;99972.63;5046132;28;20476;-70
2022/08/26 01:12:01;;;;;;;9.83;7.90;;;;;;;20.96;95.22;99977.22;5037982;28;20460;-69
2022/08/26 01:14:32;;;;;;;9.47;7.90;;;;;;;20.88;95.56;99974.38;5037507;28;20464;-69
2022/08/26 01:17:01;;;;;;;10.20;8.03;;;;;;;20.91;95.81;99980.41;5040249;28;20477;-70
2022/08/26 01:19:31;;;;;;;9.77;7.83;;;;;;;20.89;96.42;99976.94;5042995;28;20488;-70
2022/08/26 01:22:02;;;;;;;8.60;7.50;;;;;;;20.91;97.64;99977.66;5038515;28;20492;-71
2022/08/26 01:24:30;;;;;;;8.47;7.37;;;;;;;20.85;98.23;99974.66;5045227;28;20452;-71
2022/08/26 01:27:00;;;;;;;9.50;7.77;;;;;;;20.72;99.74;99980.44;5038597;28;20452;-69
2022/08/26 01:29:30;;;;;;;15.83;8.10;;;;;;;20.70;99.64;99975.09;5044528;28;20476;-70
2022/08/26 01:31:57;;;;;;;15.63;8.43;;;;;;;20.70;99.46;99977.00;5033991;28;20453;-70
2022/08/26 01:34:27;;;;;;;10.10;8.60;;;;;;;20.75;98.35;99985.63;5046263;28;20460;-69
2022/08/26 01:37:01;;;;;;;10.60;8.10;;;;;;;20.66;99.29;99987.34;5035860;28;20460;-71
2022/08/26 01:39:28;;;;;;;10.53;7.07;;;;;;;20.68;99.96;99988.06;5038600;28;20484;-69
2022/08/26 01:41:58;;;;;;;10.70;7.70;;;;;;;20.67;99.74;99986.34;5035714;28;20461;-69
2022/08/26 01:44:28;;;;;;;9.80;8.20;;;;;;;20.71;99.28;99995.13;5044187;28;20445;-69
2022/08/26 01:46:57;;;;;;;10.77;8.30;;;;;;;20.72;98.64;99996.88;5037206;28;20444;-70
2022/08/26 01:49:26;;;;;;;9.80;7.90;;;;;;;20.65;100.00;99998.47;5044014;28;20990;-69
2022/08/26 01:51:55;;;;;;;13.07;8.00;;;;;;;20.60;100.00;100004.34;5037753;28;20445;-70
2022/08/26 01:54:23;;;;;;;9.00;7.70;;;;;;;20.47;100.00;99998.28;5037981;28;20448;-69
2022/08/26 01:56:50;;;;;;;9.73;8.53;;;;;;;20.41;100.00;99991.50;5039471;28;20440;-70
2022/08/26 01:59:20;;;;;;;8.87;7.97;;;;;;;20.40;100.00;99996.09;5038432;28;20488;-69
2022/08/26 02:01:47;;;;;;;10.67;8.03;;;;;;;20.47;100.00;99996.41;5037528;28;20535;-70
2022/08/26 02:04:20;;;;;;;8.50;7.60;;;;;;;20.36;100.00;99988.31;5036626;28;20455;-69
2022/08/26 02:06:47;;;;;;;9.80;7.90;;;;;;;20.45;100.00;99990.19;5037872;28;20444;-71
2022/08/26 02:09:15;;;;;;;12.73;8.77;;;;;;;20.44;100.00;99993.94;5034142;28;20478;-69
2022/08/26 02:11:41;;;;;;;9.70;7.50;;;;;;;20.41;100.00;99994.22;5034037;28;20821;-69
2022/08/26 02:14:11;;;;;;;9.77;7.80;;;;;;;20.39;100.00;99986.16;5038649;28;20451;-69
2022/08/26 02:16:42;;;;;;;13.00;8.03;;;;;;;20.35;100.00;99992.94;5033071;28;20444;-69
2022/08/26 02:19:13;;;;;;;11.93;7.80;;;;;;;20.42;100.00;99996.81;5039850;28;21006;-69
2022/08/26 02:21:40;;;;;;;12.40;8.80;;;;;;;20.44;100.00;99988.47;5035286;28;20459;-69
2022/08/26 02:24:09;;;;;;;11.63;7.60;;;;;;;20.52;99.56;99991.34;5046112;28;20455;-68
2022/08/26 02:26:35;;;;;;;13.20;7.47;;;;;;;20.63;98.28;99986.78;5040884;28;20826;-68
2022/08/26 02:29:06;;;;;;;10.17;8.00;;;;;;;20.59;98.30;99997.16;5040848;28;20495;-69
2022/08/26 02:31:33;;;;;;;10.53;8.37;;;;;;;20.53;99.27;99986.72;5041195;28;20460;-69
2022/08/26 02:34:09;;;;;;;10.20;9.07;;;;;;;20.48;99.86;99987.16;5039604;28;20560;-69
2022/08/26 02:36:35;;;;;;;9.20;7.60;;;;;;;20.45;100.00;99995.66;5036244;28;20470;-69
2022/08/26 02:39:02;;;;;;;11.40;8.60;;;;;;;20.29;100.00;99992.63;5043780;28;20485;-69
2022/08/26 02:41:28;;;;;;;9.90;8.60;;;;;;;20.31;100.00;99990.63;5042196;28;20471;-70
2022/08/26 02:43:55;;;;;;;10.63;7.63;;;;;;;20.34;100.00;99993.06;5041258;28;20440;-70
2022/08/26 02:46:22;;;;;;;12.53;9.07;;;;;;;20.33;100.00;99988.63;5036922;28;20460;-69
2022/08/26 02:48:49;;;;;;;8.87;7.40;;;;;;;20.31;100.00;99990.63;5045155;28;20461;-70
2022/08/26 02:51:17;;;;;;;9.53;7.67;;;;;;;20.33;100.00;99999.56;5040144;28;20467;-70
2022/08/26 02:53:43;;;;;;;9.03;8.20;;;;;;;20.26;100.00;99995.63;5038119;28;20825;-68
2022/08/26 02:56:11;;;;;;;15.13;8.17;;;;;;;20.32;100.00;99993.19;5040548;28;20546;-67
2022/08/26 02:58:37;;;;;;;8.70;7.37;;;;;;;20.35;100.00;99992.03;5041623;28;20471;-69
2022/08/26 03:01:04;;;;;;;9.40;7.27;;;;;;;20.44;100.00;99993.94;5034760;28;20518;-70
2022/08/26 03:03:31;;;;;;;11.97;8.30;;;;;;;20.32;100.00;99995.06;5042840;28;20458;-68
2022/08/26 03:05:57;;;;;;;11.90;8.60;;;;;;;20.34;100.00;99998.53;5037872;28;20461;-69
2022/08/26 03:08:25;;;;;;;9.37;8.40;;;;;;;20.35;99.75;99986.59;5034923;28;20481;-69
2022/08/26 03:10:52;;;;;;;7.00;6.30;;;;;;;20.27;100.00;99989.19;5032858;28;20453;-69
2022/08/26 03:13:18;;;;;;;8.70;7.80;;;;;;;20.34;99.60;99982.13;5041673;28;20462;-69
2022/08/26 03:15:45;;;;;;;8.70;7.90;;;;;;;20.36;99.52;99980.13;5043664;28;20489;-70
2022/08/26 03:18:12;;;;;;;8.90;8.00;;;;;;;20.37;100.00;99985.47;5034357;28;20571;-70
2022/08/26 03:20:38;;;;;;;10.27;7.30;;;;;;;20.49;99.04;99980.72;5031125;28;20558;-69
2022/08/26 03:23:05;;;;;;;10.83;8.90;;;;;;;20.52;98.92;99985.03;5030691;28;20547;-70
2022/08/26 03:25:33;;;;;;;8.73;7.90;;;;;;;20.56;98.56;99981.00;5043728;28;20460;-69
2022/08/26 03:27:59;;;;;;;10.23;8.03;;;;;;;20.52;98.83;99980.41;5041221;28;20578;-70
2022/08/26 03:30:40;;;;;;;9.67;8.00;;;;;;;20.44;99.94;99979.41;5041892;28;20975;-69
2022/08/26 03:33:10;;;;;;;10.70;8.10;;;;;;;20.45;100.00;99978.41;5037165;28;20448;-69
2022/08/26 03:35:38;;;;;;;9.40;8.37;;;;;;;20.40;100.00;99981.56;5037123;28;20505;-69
2022/08/26 03:38:05;;;;;;;16.70;8.63;;;;;;;20.42;100.00;99982.28;5046142;28;20840;-69
2022/08/26 03:40:34;;;;;;;9.37;8.47;;;;;;;20.39;100.00;99975.22;5039345;28;20480;-71
2022/08/26 03:43:01;;;;;;;9.67;7.30;;;;;;;20.39;100.00;99980.69;5046619;28;20800;-69
2022/08/26 03:45:28;;;;;;;10.03;8.53;;;;;;;20.38;100.00;99983.59;5040105;28;20445;-70
2022/08/26 03:47:54;;;;;;;13.77;8.37;;;;;;;20.22;100.00;99983.28;5042012;28;20863;-69
2022/08/26 03:50:23;;;;;;;11.70;8.67;;;;;;;20.20;100.00;99981.53;5051629;28;20473;-69
2022/08/26 03:52:50;;;;;;;9.07;8.17;;;;;;;20.25;100.00;99980.25;5044105;28;20452;-69
2022/08/26 03:55:18;;;;;;;8.70;7.80;;;;;;;20.25;100.00;99977.53;5053013;28;20457;-69
2022/08/26 03:57:46;;;;;;;9.63;8.20;;;;;;;20.12;100.00;99978.63;5042100;28;20457;-69
2022/08/26 04:00:16;;;;;;;9.93;7.53;;;;;;;20.17;100.00;99976.38;5034313;28;21024;-69
2022/08/26 04:02:44;;;;;;;9.40;8.50;;;;;;;20.26;100.00;99979.22;5035859;28;20454;-68
2022/08/26 04:05:12;;;;;;;8.87;7.97;;;;;;;20.24;100.00;99981.25;5036647;28;20483;-69
2022/08/26 04:07:39;;;;;;;10.20;8.67;;;;;;;20.26;100.00;99981.97;5044041;28;20466;-70
2022/08/26 04:10:06;;;;;;;8.97;8.03;;;;;;;20.33;100.00;99978.53;5044256;28;20459;-69
2022/08/26 04:12:34;;;;;;;8.87;7.97;;;;;;;20.47;100.00;99976.41;5042200;28;20984;-68
2022/08/26 04:15:03;;;;;;;10.70;8.30;;;;;;;20.45;100.00;99979.25;5044839;28;20934;-69
2022/08/26 04:17:29;;;;;;;9.50;8.17;;;;;;;20.52;100.00;99988.63;5044417;28;20459;-70
2022/08/26 04:19:56;;;;;;;13.90;8.13;;;;;;;20.48;100.00;99981.69;5052374;28;20810;-71
2022/08/26 04:22:22;;;;;;;11.70;8.23;;;;;;;20.59;100.00;99980.72;5049686;28;20467;-71
2022/08/26 04:24:49;;;;;;;9.90;8.13;;;;;;;20.63;100.00;99976.69;5063110;28;20951;-71
2022/08/26 04:27:15;;;;;;;20.47;18.27;;;;;;;20.73;100.00;99972.06;5057045;28;20544;-73
2022/08/26 04:29:42;;;;;;;43.07;38.43;;;;;;;20.75;100.00;99974.66;5085364;22;20500;-71
2022/08/26 04:32:10;;;;;;;31.03;27.47;;;;;;;20.79;100.00;99973.38;5089297;28;20457;-72
2022/08/26 04:34:37;;;;;;;33.40;28.63;;;;;;;20.87;99.44;99968.03;5081264;28;20446;-72
2022/08/26 04:37:05;;;;;;;13.60;11.33;;;;;;;20.89;99.23;99987.03;5091595;28;20531;-72
2022/08/26 04:39:32;;;;;;;14.83;8.90;;;;;;;21.05;98.07;99970.88;5086411;28;20453;-71
2022/08/26 04:41:59;;;;;;;9.30;7.73;;;;;;;21.14;97.48;99975.50;5086687;28;20506;-71
2022/08/26 04:44:28;;;;;;;10.57;8.27;;;;;;;21.23;97.06;99973.69;5074506;28;20454;-72
2022/08/26 04:46:56;;;;;;;11.67;7.93;;;;;;;21.32;97.47;99980.16;5089307;28;20440;-71
2022/08/26 04:49:24;;;;;;;13.80;8.90;;;;;;;21.19;98.12;99975.91;5090317;28;20459;-72
2022/08/26 04:51:51;;;;;;;11.30;8.80;;;;;;;21.16;97.49;99986.25;5074128;28;20783;-72
2022/08/26 04:54:18;;;;;;;10.60;7.20;;;;;;;21.18;96.17;99987.84;5074447;28;20442;-73
2022/08/26 04:56:48;;;;;;;11.43;8.60;;;;;;;21.12;95.78;99990.31;5074659;28;20453;-72
2022/08/26 04:59:16;;;;;;;8.43;7.73;;;;;;;21.19;95.04;99989.59;5075526;28;20475;-73
2022/08/26 05:01:44;;;;;;;8.97;8.03;;;;;;;21.17;95.10;99988.00;5073634;28;20975;-72
2022/08/26 05:04:10;;;;;;;9.17;7.93;;;;;;;21.16;95.04;99981.66;5074564;28;20438;-73
2022/08/26 05:06:38;;;;;;;9.00;8.10;;;;;;;21.13;95.62;99992.06;5071868;28;20449;-72
2022/08/26 05:09:05;;;;;;;9.00;8.07;;;;;;;21.14;95.29;99991.03;5072171;28;20462;-72
2022/08/26 05:11:32;;;;;;;9.00;7.23;;;;;;;21.11;95.80;99989.44;5077336;28;20939;-73
2022/08/26 05:13:58;;;;;;;9.60;7.83;;;;;;;21.15;96.90;99995.50;5081098;28;20446;-72
2022/08/26 05:16:25;;;;;;;9.03;7.83;;;;;;;21.24;95.61;99994.63;5074279;28;20439;-72
2022/08/26 05:18:52;;;;;;;10.53;8.07;;;;;;;21.29;96.27;99994.16;5077384;28;20484;-72
2022/08/26 05:21:21;;;;;;;16.83;9.30;;;;;;;21.16;97.15;100003.56;5074007;28;20531;-71
2022/08/26 05:23:50;;;;;;;13.57;12.17;;;;;;;21.16;95.83;100006.28;5074363;28;20449;-73
2022/08/26 05:26:18;;;;;;;10.53;8.13;;;;;;;21.25;94.69;100004.53;5073124;28;20528;-72
2022/08/26 05:28:45;;;;;;;13.17;9.00;;;;;;;21.32;93.31;100005.69;5074661;28;20486;-72
2022/08/26 05:31:14;;;;;;;9.93;8.33;;;;;;;21.36;93.16;100003.50;5086272;28;20479;-73
2022/08/26 05:33:42;;;;;;;14.60;9.03;;;;;;;21.43;93.14;100011.00;5081614;28;20526;-73
2022/08/26 05:36:11;;;;;;;14.63;8.87;;;;;;;21.40;94.09;100013.16;5075978;28;20447;-74
2022/08/26 05:38:38;;;;;;;13.33;8.40;;;;;;;21.48;93.83;100013.28;5070482;28;20552;-73
2022/08/26 05:41:14;;;;;;;15.27;8.70;;;;;;;21.57;93.02;100015.16;5079267;28;20484;-73
2022/08/26 05:43:40;;;;;;;15.97;8.70;;;;;;;21.55;92.64;100013.56;5070651;28;20561;-74
2022/08/26 05:46:07;;;;;;;17.63;8.30;;;;;;;21.56;91.65;100027.13;5071507;28;20550;-74
2022/08/26 05:48:34;;;;;;;11.20;8.60;;;;;;;21.52;92.41;100022.09;5081431;28;20899;-73
2022/08/26 05:51:03;;;;;;;11.43;8.17;;;;;;;21.64;93.15;100026.41;5084630;28;20908;-72
2022/08/26 05:53:31;;;;;;;18.83;9.87;;;;;;;21.60;93.62;100019.47;5087856;28;20469;-73
2022/08/26 05:55:57;;;;;;;14.87;9.37;;;;;;;21.52;93.63;100027.56;5088312;28;20503;-72
2022/08/26 05:58:26;;;;;;;12.00;8.37;;;;;;;21.61;92.51;100023.94;5082777;28;20516;-72
2022/08/26 06:00:58;;;;;;;10.90;8.77;;;;;;;21.59;92.91;100028.69;5086391;28;20538;-73
2022/08/26 06:03:25;;;;;;;11.67;7.97;;;;;;;21.57;93.19;100023.38;5082751;28;20633;-74
2022/08/26 06:05:52;;;;;;;13.47;8.40;;;;;;;21.61;93.77;100027.53;5093470;28;20491;-73
2022/08/26 06:08:20;;;;;;;10.80;8.43;;;;;;;21.67;93.59;100028.81;5086518;28;21454;-73
2022/08/26 06:10:48;;;;;;;9.80;8.50;;;;;;;21.83;93.34;100026.28;5082389;28;20466;-75
2022/08/26 06:13:15;;;;;;;9.80;8.60;;;;;;;21.90;93.40;100018.31;5089490;28;20458;-75
2022/08/26 06:15:46;;;;;;;9.40;7.70;;;;;;;21.95;92.80;100023.34;5088511;28;20507;-75
2022/08/26 06:18:16;;;;;;;9.83;8.27;;;;;;;21.94;92.49;100022.50;5075655;28;20531;-75
2022/08/26 06:20:44;;;;;;;13.87;8.10;;;;;;;22.00;92.18;100026.50;5083934;28;20488;-72
2022/08/26 06:25:56;;;;;;;11.73;8.00;;;;;;;22.12;91.53;100027.16;5071862;28;20907;-74
2022/08/26 06:28:24;;;;;;;9.90;8.10;;;;;;;22.16;91.61;100023.97;5078360;28;20928;-75
2022/08/26 06:30:53;;;;;;;37.70;10.57;;;;;;;22.26;91.02;100034.91;5072159;28;20462;-73
2022/08/26 06:33:20;;;;;;;30.87;9.47;;;;;;;22.35;89.76;100033.13;5073977;28;20559;-72
2022/08/26 06:35:47;;;;;;;17.27;8.53;;;;;;;22.44;89.08;100043.16;5072663;28;20431;-74
2022/08/26 06:38:14;;;;;;;21.50;8.67;;;;;;;22.58;87.76;100039.03;5074649;28;20451;-73
2022/08/26 06:40:42;;;;;;;40.07;9.13;;;;;;;22.71;87.20;100053.22;5071616;28;20849;-75
2022/08/26 06:43:09;;;;;;;43.57;9.57;;;;;;;22.82;88.89;100057.63;5071743;28;20509;-76
2022/08/26 06:45:35;;;;;;;23.70;9.70;;;;;;;22.81;85.94;100058.63;5072199;28;20497;-74
2022/08/26 06:48:04;;;;;;;19.80;8.40;;;;;;;22.78;85.65;100065.28;5092610;28;20446;-75
2022/08/26 06:50:30;;;;;;;15.83;8.40;;;;;;;22.79;85.51;100061.50;5076437;28;20550;-74
2022/08/26 06:52:57;;;;;;;16.33;8.60;;;;;;;22.99;84.60;100062.25;5073527;28;20951;-76
2022/08/26 06:55:23;;;;;;;18.53;8.60;;;;;;;23.06;83.40;100065.22;5073795;28;20446;-74
2022/08/26 06:57:50;;;;;;;14.73;9.43;;;;;;;23.26;81.35;100060.41;5071154;28;21019;-73
2022/08/26 07:00:18;;;;;;;16.50;8.53;;;;;;;23.36;80.23;100055.69;5069943;28;20454;-74
2022/08/26 07:02:45;;;;;;;19.53;9.10;;;;;;;23.53;79.32;100062.16;5069536;28;20513;-75
2022/08/26 07:05:13;;;;;;;15.87;8.87;;;;;;;23.62;78.77;100060.31;5085852;28;20511;-75
2022/08/26 07:07:39;;;;;;;18.23;9.30;;;;;;;23.74;79.13;100053.50;5093916;28;20433;-73
2022/08/26 07:10:07;;;;;;;18.60;9.20;;;;;;;24.04;77.42;100051.31;5091496;28;20458;-73
2022/08/26 07:12:34;;;;;;;18.17;9.27;;;;;;;24.12;76.55;100054.06;5076980;28;20467;-75
2022/08/26 07:15:01;;;;;;;14.77;9.70;;;;;;;24.46;73.52;100055.91;5081564;28;20923;-73
2022/08/26 07:17:28;;;;;;;19.73;9.40;;;;;;;25.09;71.17;100057.25;5084896;28;20962;-72
2022/08/26 07:19:54;;;;;;;13.93;8.50;;;;;;;25.82;67.76;100052.69;5092881;28;20878;-71
2022/08/26 07:22:22;;;;;;;14.00;8.63;;;;;;;26.56;63.50;100050.53;5092987;28;20484;-74
2022/08/26 07:24:49;;;;;;;12.33;9.47;;;;;;;27.29;60.04;100053.78;5093091;28;20449;-73
2022/08/26 07:27:17;;;;;;;16.63;8.83;;;;;;;27.94;55.42;100058.66;5092809;28;20453;-72
2022/08/26 07:29:43;;;;;;;12.90;7.97;;;;;;;28.64;53.53;100057.25;5092032;28;21005;-72
2022/08/26 07:32:13;;;;;;;12.33;8.13;;;;;;;29.07;51.18;100050.88;5092262;28;20437;-73
2022/08/26 07:34:41;;;;;;;12.77;8.30;;;;;;;29.65;49.87;100048.84;5092777;28;20758;-73
2022/08/26 07:37:07;;;;;;;12.17;8.60;;;;;;;30.07;47.75;100046.97;5096166;28;20461;-73
2022/08/26 07:39:35;;;;;;;12.47;8.00;;;;;;;30.67;46.16;100046.41;5107075;28;20550;-72
2022/08/26 07:42:03;;;;;;;18.40;8.27;;;;;;;31.20;44.96;100060.41;5106268;28;20474;-72
2022/08/26 07:44:30;;;;;;;13.53;8.03;;;;;;;31.58;44.01;100054.25;5110429;28;20663;-72
2022/08/26 07:46:57;;;;;;;10.40;7.83;;;;;;;32.17;43.05;100047.69;5103809;28;20446;-72
2022/08/26 07:49:25;;;;;;;9.80;7.80;;;;;;;32.59;41.77;100052.94;5097330;28;20515;-73
2022/08/26 07:51:53;;;;;;;16.13;8.60;;;;;;;32.75;41.38;100049.63;5096375;28;20563;-73
2022/08/26 07:54:20;;;;;;;10.20;8.23;;;;;;;33.43;39.95;100045.28;5096387;28;20970;-73
2022/08/26 07:56:47;;;;;;;8.73;7.77;;;;;;;33.91;39.31;100052.16;5085560;28;20455;-73
2022/08/26 07:59:15;;;;;;;12.23;8.70;;;;;;;34.14;38.10;100052.34;5074577;28;20473;-73
2022/08/26 08:01:42;;;;;;;10.47;7.90;;;;;;;34.84;37.71;100051.88;5073390;28;21061;-73
2022/08/26 08:04:09;;;;;;;13.20;7.53;;;;;;;35.07;36.85;100059.50;5072594;28;20442;-73
2022/08/26 08:06:36;;;;;;;9.77;7.10;;;;;;;35.34;36.50;100049.84;5072829;28;20445;-74
2022/08/26 08:09:04;;;;;;;12.37;7.63;;;;;;;36.03;35.63;100052.91;5073880;28;20495;-72
2022/08/26 08:11:31;;;;;;;8.47;7.33;;;;;;;36.86;34.16;100056.34;5090776;28;20462;-73
2022/08/26 08:14:00;;;;;;;10.83;7.30;;;;;;;37.13;33.39;100057.47;5078630;28;20876;-74
2022/08/26 08:16:28;;;;;;;10.63;7.10;;;;;;;37.73;33.10;100050.34;5076088;28;20466;-74
2022/08/26 08:18:55;;;;;;;11.00;7.30;;;;;;;38.03;32.22;100051.09;5075858;28;20455;-73
2022/08/26 08:21:22;;;;;;;8.80;6.90;;;;;;;37.46;33.21;100054.94;5076070;28;20479;-74
2022/08/26 08:23:49;;;;;;;10.37;7.60;;;;;;;37.32;33.41;100057.25;5075123;28;20443;-73
2022/08/26 08:26:16;;;;;;;8.53;7.67;;;;;;;36.84;33.94;100064.19;5078104;28;20500;-73
2022/08/26 08:28:45;;;;;;;10.27;7.50;;;;;;;37.13;33.17;100054.69;5079924;28;20471;-75
2022/08/26 08:31:20;;;;;;;10.47;7.27;;;;;;;37.92;32.47;100059.34;5081382;28;20423;-73
2022/08/26 08:33:47;;;;;;;8.47;7.20;;;;;;;38.90;31.05;100055.84;5082851;28;20421;-75
2022/08/26 08:36:15;;;;;;;7.93;7.13;;;;;;;39.68;30.44;100058.25;5082357;28;20445;-75
2022/08/26 08:38:42;;;;;;;10.77;7.30;;;;;;;40.32;29.14;100050.78;5079746;28;20486;-73
2022/08/26 08:41:21;;;;;;;9.03;6.40;;;;;;;40.97;28.69;100052.13;5077143;28;20443;-73
2022/08/26 08:43:48;;;;;;;8.30;7.07;;;;;;;41.00;28.06;100050.72;5077054;28;20510;-75
2022/08/26 08:46:18;;;;;;;9.03;6.50;;;;;;;40.06;29.41;100049.81;5080407;28;20470;-74
2022/08/26 08:48:49;;;;;;;7.10;6.40;;;;;;;39.94;29.66;100055.66;5081477;28;20458;-73
2022/08/26 08:51:23;;;;;;;7.53;6.20;;;;;;;40.37;28.54;100057.31;5063633;28;20451;-75
2022/08/26 08:53:53;;;;;;;8.20;7.40;;;;;;;40.34;29.04;100046.56;5080772;28;20484;-75
2022/08/26 08:56:26;;;;;;;8.00;6.43;;;;;;;38.94;30.29;100047.72;5079745;28;20529;-72
2022/08/26 08:59:00;;;;;;;11.53;6.73;;;;;;;39.11;30.21;100039.19;5080285;28;20812;-74
2022/08/26 09:01:40;;;;;;;7.60;6.90;;;;;;;39.34;29.79;100043.59;5076393;28;20462;-73
2022/08/26 09:04:23;;;;;;;9.23;7.80;;;;;;;39.06;30.04;100033.50;5075797;28;20441;-75
2022/08/26 09:06:53;;;;;;;12.07;7.23;;;;;;;39.05;30.17;100048.69;5076632;28;20431;-72
2022/08/26 09:09:27;;;;;;;8.40;7.50;;;;;;;38.95;30.47;100043.81;5076269;28;20463;-74
2022/08/26 09:11:57;;;;;;;10.80;7.17;;;;;;;37.86;31.50;100043.53;5076902;28;20434;-75
2022/08/26 09:14:24;;;;;;;8.63;7.07;;;;;;;37.32;32.22;100040.41;5075655;28;20427;-72
2022/08/26 09:17:04;;;;;;;8.80;6.70;;;;;;;37.99;31.62;100039.47;5075644;28;20474;-73
2022/08/26 09:19:39;;;;;;;12.17;6.97;;;;;;;38.85;30.49;100043.66;5074393;28;20485;-72
2022/08/26 09:22:06;;;;;;;7.50;6.53;;;;;;;39.70;29.66;100043.91;5067349;28;20569;-73
2022/08/26 09:24:40;;;;;;;15.13;7.40;;;;;;;40.57;28.59;100042.44;5080295;28;20478;-71
2022/08/26 09:27:07;;;;;;;9.57;7.83;;;;;;;41.79;26.91;100037.19;5078892;28;20446;-72
2022/08/26 09:29:44;;;;;;;9.97;7.77;;;;;;;42.42;26.50;100042.44;5092723;28;20535;-73
2022/08/26 09:32:18;;;;;;;10.63;9.63;;;;;;;43.30;25.75;100041.59;5078075;28;20419;-75
2022/08/26 09:34:58;;;;;;;10.27;6.57;;;;;;;44.29;24.74;100053.69;5078996;28;20439;-73
2022/08/26 09:37:37;;;;;;;7.10;6.50;;;;;;;43.98;25.07;100048.34;5079905;28;20454;-75
2022/08/26 09:40:21;;;;;;;6.90;6.00;;;;;;;43.34;25.45;100046.72;5079667;28;20508;-74
2022/08/26 09:42:48;;;;;;;7.60;5.60;;;;;;;43.48;25.30;100047.69;5074117;28;20485;-71
2022/08/26 09:45:14;;;;;;;6.90;6.30;;;;;;;41.21;27.27;100046.84;5079258;28;20532;-72
2022/08/26 09:47:54;;;;;;;10.60;7.00;;;;;;;41.20;27.28;100033.00;5081711;28;20441;-73
2022/08/26 09:50:32;;;;;;;8.20;6.80;;;;;;;39.84;28.73;100024.59;5079272;28;20462;-73
2022/08/26 09:53:16;;;;;;;7.47;6.80;;;;;;;40.74;28.01;100018.81;5072290;28;20530;-74
2022/08/26 09:55:45;;;;;;;8.53;6.57;;;;;;;41.45;27.03;100024.53;5071994;28;20458;-72
2022/08/26 09:58:31;;;;;;;7.90;6.57;;;;;;;40.47;27.66;100018.97;5062516;28;20450;-72
2022/08/26 10:01:01;;;;;;;8.03;6.67;;;;;;;41.79;26.83;100023.06;5089200;28;20505;-73
2022/08/26 10:03:31;;;;;;;7.40;6.70;;;;;;;42.81;25.87;100019.88;5077459;28;20485;-73
2022/08/26 10:06:01;;;;;;;13.30;7.30;;;;;;;43.21;25.44;100006.53;5082801;28;20499;-74
2022/08/26 10:08:31;;;;;;;7.23;6.63;;;;;;;44.00;24.74;100011.19;5085495;28;20458;-73
2022/08/26 10:11:00;;;;;;;7.83;6.53;;;;;;;44.21;24.37;100015.50;5091798;28;20441;-72
2022/08/26 10:13:32;;;;;;;6.93;6.33;;;;;;;42.70;25.37;99998.41;5078029;28;20521;-73
2022/08/26 10:16:05;;;;;;;8.13;6.60;;;;;;;41.21;26.60;99993.19;5089040;28;20815;-72
2022/08/26 10:18:35;;;;;;;9.57;6.90;;;;;;;42.95;25.75;99999.41;5080633;28;20498;-73
2022/08/26 10:21:10;;;;;;;6.37;5.67;;;;;;;44.23;24.35;99993.31;5086933;28;20454;-72
2022/08/26 10:23:41;;;;;;;7.30;6.50;;;;;;;46.05;22.92;99991.78;5086893;28;20490;-74
2022/08/26 10:26:12;;;;;;;7.93;6.20;;;;;;;46.90;22.11;99986.47;5075882;28;20545;-73
2022/08/26 10:31:25;;;;;;;6.87;6.17;;;;;;;45.21;23.39;99980.50;5071282;28;20486;-70
2022/08/26 10:33:52;;;;;;;5.93;5.53;;;;;;;47.13;22.23;99984.50;5073880;28;20415;-71
2022/08/26 10:39:10;;;;;;;9.97;7.20;;;;;;;44.06;24.60;99975.97;5077375;28;20470;-70
2022/08/26 10:41:42;;;;;;;7.53;6.87;;;;;;;44.97;23.91;99964.44;5034351;28;20451;-70
2022/08/26 10:44:12;;;;;;;6.97;6.27;;;;;;;43.26;25.56;99960.34;5069305;28;20423;-71
2022/08/26 10:46:42;;;;;;;8.43;6.97;;;;;;;45.27;23.74;99954.56;5064216;28;20446;-69
2022/08/26 10:49:11;;;;;;;8.80;7.20;;;;;;;45.86;23.48;99962.56;5072314;28;20794;-69
2022/08/26 10:51:46;;;;;;;7.03;6.43;;;;;;;45.88;23.26;99965.94;5055606;28;20978;-70
2022/08/26 10:54:20;;;;;;;9.27;8.27;;;;;;;44.41;24.31;99962.44;5053001;28;20452;-69
2022/08/26 10:56:53;;;;;;;9.60;7.53;;;;;;;45.33;23.50;99969.53;5056138;28;20521;-71
2022/08/26 10:59:28;;;;;;;16.07;7.30;;;;;;;45.39;23.78;99967.44;5061874;28;20471;-72
2022/08/26 11:02:05;;;;;;;8.67;7.23;;;;;;;46.61;22.59;99966.94;5072678;28;20445;-71
2022/08/26 11:04:44;;;;;;;8.97;7.13;;;;;;;47.12;22.11;99965.72;5053927;28;20443;-72
2022/08/26 11:07:31;;;;;;;9.50;8.00;;;;;;;44.22;24.51;99970.94;5052332;28;20443;-71
2022/08/26 11:09:59;;;;;;;7.00;6.30;;;;;;;42.16;26.88;99962.47;5055172;28;20474;-69
2022/08/26 11:12:47;;;;;;;9.30;8.40;;;;;;;39.43;29.62;99951.03;5070833;28;20436;-72
2022/08/26 11:16:09;;;;;;;12.83;9.53;;;;;;;37.93;32.06;99945.81;4991572;28;20442;-73
2022/08/26 11:18:39;;;;;;;9.77;8.87;;;;;;;37.25;33.21;99945.09;4982211;28;20891;-71
2022/08/26 11:21:44;;;;;;;10.33;8.80;;;;;;;37.03;33.50;99944.16;4983220;28;20446;-72
2022/08/26 11:24:42;;;;;;;10.00;8.80;;;;;;;37.19;33.56;99946.13;4984589;28;20444;-70
2022/08/26 11:27:12;;;;;;;10.57;9.47;;;;;;;36.84;33.99;99947.22;4978410;28;20534;-73
2022/08/26 11:30:00;;;;;;;10.73;9.60;;;;;;;35.98;35.50;99944.38;4971216;28;20475;-72
2022/08/26 11:32:46;;;;;;;11.47;10.37;;;;;;;35.56;36.45;99944.56;4973004;28;20478;-71
2022/08/26 11:35:48;;;;;;;12.93;11.77;;;;;;;35.25;37.12;99932.63;4972369;28;20435;-72
2022/08/26 11:38:18;;;;;;;12.90;11.57;;;;;;;35.09;37.44;99942.56;4972678;28;20517;-73
2022/08/26 11:40:45;;;;;;;13.40;12.00;;;;;;;34.36;38.85;99934.47;4958542;28;20476;-72
2022/08/26 11:43:18;;;;;;;13.67;12.33;;;;;;;34.12;39.47;99925.97;4937965;29;20491;-69